CheckWX is a tool to help pilots better visualize weather data.  It is not intended as a substitute for an official pre-flight weather briefing.

14:04:48 UTC

CYRQ METAR
Trois-Rivieres Airport
Trois-Rivieres, Canada
Current

56 mins ago

CYRQ 301309Z AUTO 33005G15KT 280V360 9SM SCT024 BKN029 OVC085 14/10 A2980 RMK SLP095 DENSITY ALT 200FT
Observed
May-30 @ 13:09 UTC
Wind
  • 330° at 5 KTS
  • Gusting to 15 KTS
Visibility
Flight Rules
MVFR
Cloud Levels
  • Scattered at 2,400' AGL
  • Broken at 2,900' AGL
  • Overcast at 8,500' AGL
Temperature
14°C / 57°F
Dewpoint
10°C / 50°F
Humidity
77%
Altimeter
29.8" Hg
Pressure
1009.12 hPa
Previous

60 mins ago

CYRQ 301305Z AUTO 31006G15KT 270V340 9SM BKN024 BKN029 OVC085 14/10 A2980 RMK SLP094
Observed
May-30 @ 13:05 UTC
Wind
  • 310° at 6 KTS
  • Gusting to 15 KTS
Visibility
Flight Rules
MVFR
Cloud Levels
  • Broken at 2,400' AGL
  • Broken at 2,900' AGL
  • Overcast at 8,500' AGL
Temperature
14°C / 57°F
Dewpoint
10°C / 50°F
Humidity
77%
Altimeter
29.8" Hg
Pressure
1009.12 hPa
Previous

2 hours ago

CYRQ 301200Z AUTO 31005KT 270V340 9SM FEW027 BKN065 OVC074 12/11 A2976 RMK SLP080
Observed
May-30 @ 12:00 UTC
Wind
  • 310° at 5 KTS
Visibility
Flight Rules
VFR
Cloud Levels
  • Few at 2,700' AGL
  • Broken at 6,500' AGL
  • Overcast at 7,400' AGL
Temperature
12°C / 54°F
Dewpoint
11°C / 52°F
Humidity
94%
Altimeter
29.76" Hg
Pressure
1007.82 hPa